Time;durP1;ratioP1;P1;durP2;ratioP2;P2;SDS_P1;SDS_P2;PMS_P1;PMS_P2;Temp;Humidity;BMP_temperature;BMP_pressure;BME280_temperature;BME280_humidity;BME280_pressure;Samples;Min_cycle;Max_cycle;Signal;HPM_P1;HPM_P2
2024/03/15 00:01:47;;;;;;;2.47;2.07;;;14.80;99.90;;;;;;5035267;28;20458;-69
2024/03/15 00:04:14;;;;;;;2.40;1.93;;;14.80;99.90;;;;;;5037593;28;20450;-69
2024/03/15 00:06:41;;;;;;;3.17;2.13;;;14.70;99.90;;;;;;5014575;28;20945;-69
2024/03/15 00:09:09;;;;;;;3.20;2.57;;;14.70;99.90;;;;;;5034368;28;20477;-69
2024/03/15 00:11:36;;;;;;;2.93;2.40;;;14.60;99.90;;;;;;5034731;28;20454;-70
2024/03/15 00:14:03;;;;;;;6.03;2.53;;;14.50;99.90;;;;;;5051474;28;20469;-70
2024/03/15 00:16:30;;;;;;;2.37;2.13;;;14.40;99.90;;;;;;5039995;28;22473;-69
2024/03/15 00:18:58;;;;;;;2.73;2.13;;;14.40;99.90;;;;;;5034663;28;20561;-69
2024/03/15 00:21:25;;;;;;;3.90;2.07;;;14.40;99.90;;;;;;5038262;28;20464;-69
2024/03/15 00:23:52;;;;;;;4.27;2.40;;;14.40;99.90;;;;;;5034735;28;20614;-70
2024/03/15 00:26:19;;;;;;;3.53;2.57;;;14.50;99.90;;;;;;5057606;28;20582;-69
2024/03/15 00:31:25;;;;;;;3.50;2.60;;;14.60;99.90;;;;;;5069542;28;20582;-72
2024/03/15 00:33:52;;;;;;;3.83;2.93;;;14.50;99.90;;;;;;5062262;28;20518;-71
2024/03/15 00:36:18;;;;;;;3.30;2.43;;;14.50;99.90;;;;;;5060311;28;20439;-71
2024/03/15 00:38:45;;;;;;;3.40;2.53;;;14.40;99.90;;;;;;5061296;28;20460;-72
2024/03/15 00:41:12;;;;;;;4.00;2.30;;;14.50;99.90;;;;;;5050223;28;20454;-71
2024/03/15 00:43:39;;;;;;;2.53;2.23;;;14.50;99.90;;;;;;5057062;28;20534;-72
2024/03/15 00:46:06;;;;;;;2.60;2.07;;;14.40;99.90;;;;;;5055960;28;20469;-72
2024/03/15 00:48:35;;;;;;;3.20;2.20;;;14.30;99.90;;;;;;5050238;28;20962;-71
2024/03/15 00:51:02;;;;;;;2.23;2.03;;;14.40;99.90;;;;;;5061276;28;20989;-72
2024/03/15 00:53:30;;;;;;;2.63;2.17;;;14.50;99.90;;;;;;5069921;28;20497;-72
2024/03/15 00:55:57;;;;;;;1.70;1.40;;;14.60;99.90;;;;;;5059318;28;20940;-72
2024/03/15 00:58:25;;;;;;;5.27;2.23;;;14.70;99.90;;;;;;5078788;28;20473;-71
2024/03/15 01:00:52;;;;;;;3.50;2.67;;;14.70;99.90;;;;;;5067744;28;20831;-71
2024/03/15 01:03:19;;;;;;;4.93;2.13;;;14.70;99.90;;;;;;5037900;28;20457;-72
2024/03/15 01:05:46;;;;;;;3.73;2.20;;;14.70;99.90;;;;;;5065945;28;20472;-72
2024/03/15 01:08:16;;;;;;;3.00;2.07;;;14.60;99.90;;;;;;5072268;28;20460;-71
2024/03/15 01:10:43;;;;;;;2.50;2.10;;;14.60;99.90;;;;;;5060967;28;20482;-71
2024/03/15 01:13:10;;;;;;;8.63;1.93;;;14.80;99.90;;;;;;5056005;28;20424;-72
2024/03/15 01:15:37;;;;;;;2.43;2.23;;;14.70;99.90;;;;;;5057063;28;20468;-72
2024/03/15 01:18:04;;;;;;;2.30;2.03;;;14.70;99.90;;;;;;5057939;28;20573;-72
2024/03/15 01:20:32;;;;;;;2.17;1.90;;;14.60;99.90;;;;;;5061889;28;20793;-72
2024/03/15 01:22:59;;;;;;;3.53;2.20;;;14.50;99.90;;;;;;5062285;28;20475;-72
2024/03/15 01:25:27;;;;;;;5.00;2.00;;;14.40;99.90;;;;;;5058778;28;20466;-71
2024/03/15 01:27:54;;;;;;;3.47;2.67;;;14.40;99.90;;;;;;5074988;28;20522;-71
2024/03/15 01:30:21;;;;;;;5.20;2.90;;;14.40;99.90;;;;;;5060568;28;20476;-72
2024/03/15 01:32:50;;;;;;;2.33;1.70;;;14.50;99.90;;;;;;5072212;27;20464;-72
2024/03/15 01:35:17;;;;;;;2.33;2.10;;;14.60;99.90;;;;;;5060148;28;20465;-72
2024/03/15 01:37:44;;;;;;;2.77;2.47;;;14.60;99.90;;;;;;5056884;28;20457;-72
2024/03/15 01:40:12;;;;;;;8.83;2.80;;;14.50;99.90;;;;;;5059309;28;20484;-72
2024/03/15 01:42:38;;;;;;;6.70;2.10;;;14.50;99.90;;;;;;5043353;28;20453;-72
2024/03/15 01:45:07;;;;;;;3.43;2.13;;;14.60;99.90;;;;;;5055601;28;20465;-71
2024/03/15 01:47:33;;;;;;;7.50;3.10;;;14.60;99.90;;;;;;5051770;28;20870;-71
2024/03/15 01:50:00;;;;;;;2.07;1.70;;;14.70;99.90;;;;;;5057509;27;20596;-72
2024/03/15 01:52:30;;;;;;;2.60;1.80;;;14.80;99.90;;;;;;5053116;27;20467;-71
2024/03/15 01:54:57;;;;;;;3.57;2.03;;;14.70;99.90;;;;;;5057268;28;20468;-71
2024/03/15 01:57:24;;;;;;;2.93;2.10;;;14.70;99.90;;;;;;5061583;28;20465;-72
2024/03/15 01:59:51;;;;;;;3.80;2.00;;;14.70;99.90;;;;;;5066387;27;20476;-72
2024/03/15 02:02:19;;;;;;;6.50;2.60;;;14.80;99.90;;;;;;5053454;28;20454;-72
2024/03/15 02:04:53;;;;;;;2.10;1.90;;;14.70;99.90;;;;;;5035751;27;20544;-71
2024/03/15 02:07:20;;;;;;;3.50;2.00;;;14.70;99.90;;;;;;5053484;28;20471;-71
2024/03/15 02:09:47;;;;;;;1.90;1.67;;;14.70;99.90;;;;;;5045940;28;20476;-72
2024/03/15 02:12:14;;;;;;;2.43;1.90;;;14.70;99.90;;;;;;5052011;28;20595;-72
2024/03/15 02:14:41;;;;;;;3.23;2.43;;;14.60;99.90;;;;;;5066363;27;20472;-71
2024/03/15 02:17:08;;;;;;;3.93;2.37;;;14.60;99.90;;;;;;5066311;28;20460;-71
2024/03/15 02:19:35;;;;;;;3.30;2.13;;;14.60;99.90;;;;;;5052432;27;21090;-71
2024/03/15 02:22:01;;;;;;;3.30;2.20;;;14.50;99.90;;;;;;5076778;27;20476;-72
2024/03/15 02:24:29;;;;;;;3.57;1.87;;;14.50;99.90;;;;;;5057958;28;20453;-71
2024/03/15 02:26:56;;;;;;;2.80;1.90;;;14.50;99.90;;;;;;5065525;27;20461;-71
2024/03/15 02:29:25;;;;;;;2.10;1.67;;;14.40;99.90;;;;;;5067038;28;20556;-72
2024/03/15 02:31:52;;;;;;;3.83;2.17;;;14.60;99.90;;;;;;5056182;27;20496;-71
2024/03/15 02:34:19;;;;;;;4.20;2.60;;;14.60;99.90;;;;;;5068699;28;20961;-72
2024/03/15 02:36:46;;;;;;;4.53;2.00;;;14.60;99.90;;;;;;5053864;27;20460;-71
2024/03/15 02:39:16;;;;;;;2.37;2.10;;;14.50;99.90;;;;;;5058099;27;20458;-71
2024/03/15 02:41:43;;;;;;;2.57;1.97;;;14.50;99.90;;;;;;5062343;28;20897;-72
2024/03/15 02:44:10;;;;;;;4.43;2.37;;;14.50;99.90;;;;;;5075612;28;20506;-71
2024/03/15 02:46:37;;;;;;;2.10;1.80;;;14.40;99.90;;;;;;5078690;28;20486;-71
2024/03/15 02:49:04;;;;;;;2.33;1.77;;;14.50;99.90;;;;;;5065127;28;20584;-72
2024/03/15 02:51:31;;;;;;;2.63;2.10;;;14.40;99.90;;;;;;5073670;27;20532;-71
2024/03/15 02:53:58;;;;;;;2.17;1.93;;;14.40;99.90;;;;;;5070031;28;22725;-72
2024/03/15 02:56:25;;;;;;;3.20;2.20;;;14.30;99.90;;;;;;5057174;28;20456;-72
2024/03/15 02:58:52;;;;;;;3.00;1.77;;;14.30;99.90;;;;;;5059896;28;21027;-72
2024/03/15 03:01:19;;;;;;;3.13;2.63;;;14.30;99.90;;;;;;5076172;28;20454;-71
2024/03/15 03:03:46;;;;;;;2.33;2.10;;;14.20;99.90;;;;;;5064386;28;20466;-72
2024/03/15 03:06:13;;;;;;;3.70;1.93;;;14.10;99.90;;;;;;5064578;27;20467;-71
2024/03/15 03:08:40;;;;;;;3.57;2.20;;;14.20;99.90;;;;;;5056072;28;20484;-72
2024/03/15 03:11:08;;;;;;;5.43;2.00;;;14.20;99.90;;;;;;5066010;27;20488;-72
2024/03/15 03:13:35;;;;;;;3.00;2.00;;;14.20;99.90;;;;;;5086347;27;20834;-72
2024/03/15 03:16:01;;;;;;;5.00;1.97;;;14.20;99.90;;;;;;5060143;27;20541;-72
2024/03/15 03:18:28;;;;;;;2.30;1.73;;;14.20;99.90;;;;;;5048412;28;20452;-71
2024/03/15 03:20:55;;;;;;;2.83;2.40;;;14.20;99.90;;;;;;5069361;27;20478;-72
2024/03/15 03:23:22;;;;;;;4.47;1.90;;;14.30;99.90;;;;;;5065285;28;20520;-71
2024/03/15 03:25:50;;;;;;;4.90;2.40;;;14.30;99.90;;;;;;5059743;27;21140;-72
2024/03/15 03:28:17;;;;;;;5.50;1.50;;;14.30;99.90;;;;;;5063218;27;20845;-72
2024/03/15 03:30:44;;;;;;;2.00;1.53;;;14.30;99.90;;;;;;5053065;27;20497;-71
2024/03/15 03:33:11;;;;;;;2.17;1.97;;;14.40;99.90;;;;;;5073243;27;20480;-71
2024/03/15 03:35:37;;;;;;;2.33;2.00;;;14.40;99.90;;;;;;5066233;28;20452;-71
2024/03/15 03:38:05;;;;;;;3.80;1.80;;;14.40;99.90;;;;;;5048552;28;20460;-72
2024/03/15 03:40:33;;;;;;;2.40;1.90;;;14.40;99.90;;;;;;5059504;27;20476;-72
2024/03/15 03:43:01;;;;;;;1.70;1.27;;;14.40;99.90;;;;;;5073050;27;20849;-71
2024/03/15 03:45:28;;;;;;;5.37;2.57;;;14.40;99.90;;;;;;5066962;28;20533;-73
2024/03/15 03:47:55;;;;;;;4.07;2.40;;;14.40;99.90;;;;;;5075492;28;20464;-72
2024/03/15 03:50:22;;;;;;;3.57;1.37;;;14.40;99.90;;;;;;5064463;27;21020;-72
2024/03/15 03:52:50;;;;;;;1.93;1.70;;;14.40;99.90;;;;;;5055312;28;20461;-72
2024/03/15 03:55:17;;;;;;;2.33;1.70;;;14.50;99.90;;;;;;5055013;27;20591;-71
2024/03/15 03:57:45;;;;;;;3.00;2.27;;;14.50;99.90;;;;;;5054332;27;20538;-71
2024/03/15 04:00:14;;;;;;;2.03;1.90;;;14.40;99.90;;;;;;5053813;27;20484;-74
2024/03/15 04:02:44;;;;;;;10.30;2.27;;;14.40;99.90;;;;;;5059342;28;22031;-72
2024/03/15 04:05:12;;;;;;;1.97;1.63;;;14.40;99.90;;;;;;5066725;27;20433;-71
2024/03/15 04:07:39;;;;;;;3.10;2.07;;;14.40;99.90;;;;;;5065835;28;20464;-71
2024/03/15 04:10:07;;;;;;;2.83;2.00;;;14.40;99.90;;;;;;5076106;27;20469;-71
2024/03/15 04:12:35;;;;;;;2.33;2.10;;;14.40;99.90;;;;;;5053076;28;20580;-72
2024/03/15 04:15:02;;;;;;;2.90;1.70;;;14.40;99.90;;;;;;5048846;28;20472;-72
2024/03/15 04:17:29;;;;;;;3.00;1.70;;;14.50;99.90;;;;;;5060266;28;20458;-71
2024/03/15 04:19:57;;;;;;;2.30;2.10;;;14.50;99.90;;;;;;5078045;28;22145;-72
2024/03/15 04:22:25;;;;;;;2.53;1.83;;;14.50;99.90;;;;;;5069654;28;20457;-72
2024/03/15 04:24:52;;;;;;;5.13;2.83;;;14.40;99.90;;;;;;5088701;28;20510;-72
2024/03/15 04:27:19;;;;;;;2.00;1.50;;;14.40;99.90;;;;;;5067912;27;20460;-72
2024/03/15 04:29:46;;;;;;;4.27;2.07;;;14.40;99.90;;;;;;5078004;28;20497;-73
2024/03/15 04:32:13;;;;;;;2.57;1.80;;;14.50;99.90;;;;;;5058681;27;20498;-73
2024/03/15 04:34:40;;;;;;;3.10;2.10;;;14.40;99.90;;;;;;5055516;28;20484;-72
2024/03/15 04:37:09;;;;;;;4.33;3.17;;;14.50;99.90;;;;;;5057054;28;21268;-72
2024/03/15 04:39:36;;;;;;;1.87;1.70;;;14.50;99.90;;;;;;5053524;28;20487;-72
2024/03/15 04:42:04;;;;;;;4.60;2.13;;;14.40;99.90;;;;;;5072117;28;20465;-72
2024/03/15 04:44:33;;;;;;;2.30;1.70;;;14.30;99.90;;;;;;5053804;28;20464;-72
2024/03/15 04:47:01;;;;;;;1.60;1.40;;;14.40;99.90;;;;;;5055023;28;20457;-71
2024/03/15 04:49:28;;;;;;;4.47;2.20;;;14.30;99.90;;;;;;5066215;28;20928;-72
2024/03/15 04:51:55;;;;;;;2.30;2.10;;;14.30;99.90;;;;;;5060510;28;20476;-72
2024/03/15 04:54:22;;;;;;;2.93;1.83;;;14.30;99.90;;;;;;5067632;28;20528;-71
2024/03/15 04:56:50;;;;;;;2.80;1.70;;;14.40;99.90;;;;;;5061488;28;20452;-72
2024/03/15 04:59:17;;;;;;;2.53;1.83;;;14.40;99.90;;;;;;5054340;27;20475;-72
2024/03/15 05:01:44;;;;;;;2.13;1.60;;;14.40;99.90;;;;;;5078256;28;20941;-73
2024/03/15 05:04:11;;;;;;;3.37;2.00;;;14.30;99.90;;;;;;5076161;28;20846;-72
2024/03/15 05:06:38;;;;;;;4.13;1.87;;;14.30;99.90;;;;;;5065172;28;20453;-72
2024/03/15 05:09:08;;;;;;;3.23;2.93;;;14.30;99.90;;;;;;5061938;28;20477;-72
2024/03/15 05:11:35;;;;;;;1.67;1.40;;;14.30;99.90;;;;;;5064448;28;20870;-72
2024/03/15 05:14:02;;;;;;;3.27;2.37;;;14.30;99.90;;;;;;5061309;28;20554;-72
2024/03/15 05:16:29;;;;;;;4.67;1.87;;;14.30;99.90;;;;;;5055070;28;20453;-72
2024/03/15 05:18:56;;;;;;;2.40;2.17;;;14.30;99.90;;;;;;5059092;28;20445;-72
2024/03/15 05:21:23;;;;;;;2.77;2.47;;;14.40;99.90;;;;;;5059150;28;20481;-71
2024/03/15 05:23:50;;;;;;;7.03;2.67;;;14.30;99.90;;;;;;5061118;28;20492;-72
2024/03/15 05:26:17;;;;;;;2.70;2.03;;;14.30;99.90;;;;;;5058376;28;22349;-71
2024/03/15 05:28:45;;;;;;;4.50;2.27;;;14.30;99.90;;;;;;5055190;28;20581;-71
2024/03/15 05:31:13;;;;;;;4.43;2.10;;;14.30;99.90;;;;;;5062987;28;20489;-72
2024/03/15 05:33:40;;;;;;;6.13;3.10;;;14.30;99.90;;;;;;5060557;28;22444;-72
2024/03/15 05:36:07;;;;;;;5.97;2.17;;;14.20;99.90;;;;;;5055390;28;20461;-72
2024/03/15 05:38:35;;;;;;;2.57;1.93;;;14.20;99.90;;;;;;5055329;28;20492;-72
2024/03/15 05:41:03;;;;;;;1.90;1.73;;;14.20;99.90;;;;;;5047011;28;20484;-72
2024/03/15 05:43:30;;;;;;;2.20;1.63;;;14.30;99.90;;;;;;5054254;28;20960;-72
2024/03/15 05:45:57;;;;;;;3.03;1.90;;;14.30;99.90;;;;;;5060818;28;20458;-72
2024/03/15 05:48:24;;;;;;;5.97;2.40;;;14.30;99.90;;;;;;5057869;28;20565;-72
2024/03/15 05:50:50;;;;;;;3.90;3.00;;;14.30;99.90;;;;;;5052978;28;20472;-72
2024/03/15 05:53:17;;;;;;;5.90;4.10;;;14.40;99.90;;;;;;5072096;28;20471;-71
2024/03/15 05:55:44;;;;;;;3.30;2.70;;;14.30;99.90;;;;;;5061751;28;21429;-72
2024/03/15 05:58:11;;;;;;;2.10;1.67;;;14.40;99.90;;;;;;5067112;28;20461;-72
2024/03/15 06:00:39;;;;;;;2.17;1.87;;;14.30;99.90;;;;;;5053689;28;20785;-72
2024/03/15 06:03:08;;;;;;;2.83;1.83;;;14.30;99.90;;;;;;5044689;28;20913;-72
2024/03/15 06:05:35;;;;;;;4.93;2.63;;;14.40;99.90;;;;;;5058755;28;20461;-72
2024/03/15 06:08:02;;;;;;;4.90;2.50;;;14.50;99.90;;;;;;5054909;28;20816;-71
2024/03/15 06:10:29;;;;;;;3.50;2.57;;;14.40;99.90;;;;;;5057167;28;20754;-71
2024/03/15 06:12:56;;;;;;;4.07;2.40;;;14.40;99.90;;;;;;5054708;28;20489;-72
2024/03/15 06:15:23;;;;;;;5.13;2.30;;;14.40;99.90;;;;;;5045824;28;20436;-72
2024/03/15 06:17:50;;;;;;;2.73;1.80;;;14.30;99.90;;;;;;5069979;28;20552;-71
2024/03/15 06:20:18;;;;;;;5.20;1.90;;;14.20;99.90;;;;;;5056668;28;20507;-71
2024/03/15 06:22:45;;;;;;;2.60;1.93;;;14.30;99.90;;;;;;5049500;28;20957;-73
2024/03/15 06:25:12;;;;;;;2.70;2.03;;;14.20;99.90;;;;;;5056764;28;20465;-71
2024/03/15 06:27:40;;;;;;;2.53;2.03;;;14.20;99.90;;;;;;5067071;28;20498;-72
2024/03/15 06:30:08;;;;;;;3.87;2.33;;;14.20;99.90;;;;;;5072397;22;22754;-69
2024/03/15 06:32:38;;;;;;;2.87;2.43;;;14.20;99.90;;;;;;5075099;27;20617;-69
2024/03/15 06:35:18;;;;;;;7.33;2.13;;;14.30;99.90;;;;;;5080594;27;20448;-69
2024/03/15 06:37:45;;;;;;;2.67;2.40;;;14.20;99.90;;;;;;5074785;27;20966;-69
2024/03/15 06:40:19;;;;;;;2.40;2.20;;;14.10;99.90;;;;;;5063722;28;20451;-70
2024/03/15 06:45:44;;;;;;;5.53;3.37;;;14.20;99.90;;;;;;5074700;28;20476;-69
2024/03/15 06:48:17;;;;;;;4.37;2.90;;;14.20;99.90;;;;;;5063866;28;20469;-69
2024/03/15 06:50:49;;;;;;;5.37;2.63;;;14.30;99.90;;;;;;5078553;28;20484;-70
2024/03/15 06:53:17;;;;;;;2.83;2.17;;;14.30;99.90;;;;;;5066784;28;20443;-70
2024/03/15 06:55:44;;;;;;;4.33;1.93;;;14.40;99.90;;;;;;5065128;28;20475;-70
2024/03/15 06:58:12;;;;;;;7.50;3.73;;;14.50;99.90;;;;;;5063353;28;20461;-70
2024/03/15 07:00:40;;;;;;;4.10;2.40;;;14.50;99.90;;;;;;5063784;28;20484;-71
2024/03/15 07:03:07;;;;;;;2.07;1.87;;;14.50;99.90;;;;;;5063620;28;20886;-70
2024/03/15 07:05:34;;;;;;;3.33;2.47;;;14.40;99.90;;;;;;5078957;28;20436;-70
2024/03/15 07:08:01;;;;;;;2.67;1.60;;;14.50;99.90;;;;;;5066505;28;20465;-70
2024/03/15 07:10:28;;;;;;;3.70;2.90;;;14.50;99.90;;;;;;5058561;28;20504;-70
2024/03/15 07:12:55;;;;;;;2.67;1.93;;;14.50;99.90;;;;;;5062789;28;20477;-71
2024/03/15 07:15:22;;;;;;;2.50;2.27;;;14.60;99.90;;;;;;5059658;28;21053;-70
2024/03/15 07:17:49;;;;;;;4.03;3.43;;;14.60;99.90;;;;;;5077087;28;20535;-70
2024/03/15 07:20:16;;;;;;;4.67;3.50;;;14.60;99.90;;;;;;5055352;28;20554;-70
2024/03/15 07:22:43;;;;;;;5.20;3.20;;;14.60;99.90;;;;;;5062737;28;20477;-70
2024/03/15 07:25:11;;;;;;;3.97;3.37;;;14.50;99.90;;;;;;5061100;28;20461;-71
2024/03/15 07:27:38;;;;;;;8.43;3.67;;;14.50;99.90;;;;;;5053428;28;21087;-71
2024/03/15 07:30:06;;;;;;;7.30;3.70;;;14.50;99.90;;;;;;5054025;28;20485;-69
2024/03/15 07:32:35;;;;;;;6.03;3.10;;;14.40;99.90;;;;;;5062609;28;20518;-69
2024/03/15 07:35:04;;;;;;;19.90;5.00;;;14.50;99.90;;;;;;5078211;28;20452;-69
2024/03/15 07:37:31;;;;;;;6.57;3.80;;;14.60;99.90;;;;;;5052499;28;20498;-69
2024/03/15 07:39:59;;;;;;;7.07;3.93;;;14.70;99.90;;;;;;5051568;28;20478;-69
2024/03/15 07:42:26;;;;;;;5.90;2.93;;;14.60;99.90;;;;;;5056983;28;20909;-69
2024/03/15 07:44:54;;;;;;;13.20;4.60;;;14.60;99.90;;;;;;5056574;28;20551;-69
2024/03/15 07:47:22;;;;;;;9.13;3.97;;;14.60;99.90;;;;;;5057774;28;20453;-69
2024/03/15 07:49:51;;;;;;;5.17;3.13;;;14.80;99.90;;;;;;5055808;28;20507;-69
2024/03/15 07:52:19;;;;;;;5.57;3.27;;;14.90;99.90;;;;;;5051631;28;20469;-69
2024/03/15 07:54:45;;;;;;;4.27;2.63;;;14.80;99.90;;;;;;5067891;28;20460;-69
2024/03/15 07:57:13;;;;;;;9.53;3.23;;;14.80;99.90;;;;;;5056480;28;20465;-69
2024/03/15 07:59:40;;;;;;;3.57;3.20;;;14.70;99.90;;;;;;5058174;28;20858;-70
2024/03/15 08:02:07;;;;;;;10.00;4.40;;;14.60;99.90;;;;;;5069627;28;20920;-69
2024/03/15 08:04:35;;;;;;;11.00;3.83;;;14.50;99.90;;;;;;5053566;28;20564;-69
2024/03/15 08:07:02;;;;;;;8.20;2.93;;;14.60;99.90;;;;;;5059316;28;20453;-69
2024/03/15 08:09:29;;;;;;;4.50;2.40;;;14.80;99.90;;;;;;5053684;28;20472;-69
2024/03/15 08:11:56;;;;;;;3.63;1.90;;;15.20;99.90;;;;;;5058379;28;20563;-69
2024/03/15 08:14:23;;;;;;;18.87;3.13;;;15.40;99.90;;;;;;5052974;28;20460;-69
2024/03/15 08:16:49;;;;;;;5.03;2.53;;;15.50;99.90;;;;;;5054662;28;20460;-70
2024/03/15 08:19:16;;;;;;;4.90;2.80;;;15.70;99.90;;;;;;5060346;28;20486;-70
2024/03/15 08:21:43;;;;;;;5.60;2.80;;;16.10;99.90;;;;;;5057090;28;20471;-69
2024/03/15 08:24:10;;;;;;;4.50;2.80;;;16.20;99.90;;;;;;5065880;27;20470;-69
2024/03/15 08:26:39;;;;;;;3.60;2.47;;;16.20;99.90;;;;;;5056068;28;20464;-69
2024/03/15 08:29:06;;;;;;;5.73;2.30;;;16.00;99.90;;;;;;5064794;28;20484;-69
2024/03/15 08:32:14;;;;;;;3.50;2.53;;;15.70;99.90;;;;;;5057110;28;20456;-68
2024/03/15 08:34:41;;;;;;;2.67;2.00;;;15.50;99.90;;;;;;5085746;28;20457;-69
2024/03/15 08:37:08;;;;;;;3.63;2.23;;;15.50;99.90;;;;;;5059741;28;20620;-68
2024/03/15 08:39:35;;;;;;;4.10;3.60;;;15.60;99.90;;;;;;5061019;28;22117;-69
2024/03/15 08:42:02;;;;;;;4.33;2.80;;;15.50;99.90;;;;;;5058583;28;20452;-69
2024/03/15 08:44:30;;;;;;;4.40;3.23;;;15.50;99.90;;;;;;5058592;28;20453;-69
2024/03/15 08:46:57;;;;;;;6.10;4.20;;;15.60;99.90;;;;;;5063285;28;20824;-69
2024/03/15 08:49:26;;;;;;;5.27;3.20;;;15.50;99.90;;;;;;5059946;28;20504;-69
2024/03/15 08:51:53;;;;;;;3.67;3.37;;;15.60;99.90;;;;;;5054992;28;20468;-68
2024/03/15 08:54:20;;;;;;;11.13;3.87;;;15.60;99.90;;;;;;5072737;28;20582;-69
2024/03/15 08:56:47;;;;;;;4.13;1.90;;;15.70;99.90;;;;;;5075812;27;20472;-68
2024/03/15 08:59:14;;;;;;;5.60;2.40;;;15.80;99.90;;;;;;5054377;28;20485;-68
2024/03/15 09:01:41;;;;;;;4.13;3.27;;;15.70;99.90;;;;;;5049588;28;20484;-69
2024/03/15 09:04:09;;;;;;;3.60;2.40;;;15.60;99.90;;;;;;5059115;28;20453;-68
2024/03/15 09:06:36;;;;;;;3.00;2.50;;;15.50;99.90;;;;;;5046719;28;20484;-68
2024/03/15 09:09:11;;;;;;;2.87;2.47;;;15.40;99.90;;;;;;5062737;28;20568;-68
2024/03/15 09:11:38;;;;;;;4.23;2.27;;;15.40;99.90;;;;;;5066997;28;20558;-68
2024/03/15 09:14:06;;;;;;;3.80;2.70;;;15.40;99.90;;;;;;5054856;28;20477;-68
2024/03/15 09:16:35;;;;;;;4.80;2.13;;;15.30;99.90;;;;;;5054971;28;20647;-68
2024/03/15 09:19:02;;;;;;;4.23;2.63;;;15.20;99.90;;;;;;5050243;28;20867;-68
2024/03/15 09:21:30;;;;;;;2.13;1.80;;;15.30;99.90;;;;;;5053092;28;20456;-69
2024/03/15 09:23:57;;;;;;;3.10;1.90;;;15.40;99.90;;;;;;5059112;28;20893;-68
2024/03/15 09:26:24;;;;;;;3.40;2.37;;;15.30;99.90;;;;;;5052954;28;20976;-67
2024/03/15 09:28:51;;;;;;;2.83;2.13;;;15.20;99.90;;;;;;5068730;28;20460;-67
2024/03/15 09:31:24;;;;;;;3.10;2.20;;;15.10;99.90;;;;;;5058129;28;20481;-68
2024/03/15 09:33:54;;;;;;;2.10;1.90;;;15.20;99.90;;;;;;5047291;28;20482;-68
2024/03/15 09:36:21;;;;;;;3.20;2.23;;;15.30;99.90;;;;;;5057019;28;20582;-68
2024/03/15 09:38:49;;;;;;;3.50;2.30;;;15.40;99.90;;;;;;5068115;28;20465;-68
2024/03/15 09:41:16;;;;;;;3.90;2.63;;;15.40;99.90;;;;;;5050865;28;20474;-68
2024/03/15 09:43:45;;;;;;;3.80;2.43;;;15.30;99.90;;;;;;5057550;28;20449;-68
2024/03/15 09:46:13;;;;;;;3.37;2.77;;;15.40;99.90;;;;;;5059856;28;20458;-68
2024/03/15 09:48:40;;;;;;;4.20;2.53;;;15.50;99.90;;;;;;5048936;28;20465;-68
2024/03/15 09:51:08;;;;;;;4.27;3.07;;;15.60;99.90;;;;;;5059309;27;20988;-68
2024/03/15 09:53:36;;;;;;;5.30;2.37;;;15.50;99.90;;;;;;5054267;27;20498;-68
2024/03/15 09:56:03;;;;;;;3.80;3.17;;;15.30;99.90;;;;;;5055600;28;20479;-69
2024/03/15 09:58:31;;;;;;;2.30;2.10;;;15.30;99.90;;;;;;5058885;27;20460;-68
2024/03/15 10:00:59;;;;;;;2.03;1.83;;;15.40;99.90;;;;;;5055373;28;20485;-68
2024/03/15 10:03:26;;;;;;;2.77;2.57;;;15.60;99.90;;;;;;5054773;27;21000;-68
2024/03/15 10:05:54;;;;;;;2.60;2.40;;;15.60;99.90;;;;;;5062957;28;20449;-69
2024/03/15 10:08:20;;;;;;;4.73;3.10;;;15.60;99.90;;;;;;5055204;28;20544;-68
2024/03/15 10:10:47;;;;;;;4.47;2.73;;;15.70;99.90;;;;;;5055036;28;21061;-69
2024/03/15 10:13:14;;;;;;;1.40;1.23;;;16.00;99.90;;;;;;5059771;28;20481;-69
2024/03/15 10:15:44;;;;;;;2.20;2.00;;;16.30;99.90;;;;;;5072515;28;20784;-68
2024/03/15 10:18:11;;;;;;;3.23;2.27;;;16.20;99.90;;;;;;5070785;27;20488;-68
2024/03/15 10:20:38;;;;;;;7.20;2.90;;;16.30;99.90;;;;;;5059404;28;20606;-68
2024/03/15 10:23:05;;;;;;;4.30;2.20;;;16.40;99.90;;;;;;5069749;28;20452;-69
2024/03/15 10:25:34;;;;;;;4.63;2.70;;;16.50;99.90;;;;;;5065084;28;20614;-68
2024/03/15 10:28:01;;;;;;;5.27;3.33;;;16.50;99.90;;;;;;5056082;28;20465;-68
2024/03/15 10:30:29;;;;;;;2.60;2.40;;;16.50;99.90;;;;;;5074336;28;20490;-68
2024/03/15 10:32:57;;;;;;;2.40;2.20;;;16.40;99.90;;;;;;5062112;28;20506;-68
2024/03/15 10:35:27;;;;;;;9.50;2.50;;;16.50;99.90;;;;;;5062163;28;20564;-68
2024/03/15 10:37:54;;;;;;;2.73;1.87;;;16.80;99.90;;;;;;5076897;28;20457;-69
2024/03/15 10:40:21;;;;;;;6.43;2.20;;;17.10;99.90;;;;;;5053816;28;22210;-69
2024/03/15 10:42:48;;;;;;;5.33;1.90;;;17.40;99.90;;;;;;5066177;28;20523;-68
2024/03/15 10:45:15;;;;;;;2.43;2.20;;;17.60;99.90;;;;;;5072353;28;20460;-68
2024/03/15 10:47:43;;;;;;;3.43;2.30;;;17.60;99.90;;;;;;5061842;28;20489;-68
2024/03/15 10:50:11;;;;;;;3.13;2.60;;;17.60;99.90;;;;;;5064656;28;20484;-68
2024/03/15 10:52:39;;;;;;;4.20;2.13;;;17.50;99.90;;;;;;5060794;28;20780;-68
2024/03/15 10:55:06;;;;;;;1.93;1.70;;;17.30;99.90;;;;;;5065759;28;20461;-68
2024/03/15 10:57:33;;;;;;;4.80;2.13;;;17.00;99.90;;;;;;5060175;28;21004;-68
2024/03/15 11:00:00;;;;;;;3.00;2.00;;;16.70;99.90;;;;;;5079900;28;20485;-68
2024/03/15 11:02:27;;;;;;;4.43;2.33;;;16.60;99.90;;;;;;5059343;28;20452;-69
2024/03/15 11:04:54;;;;;;;3.00;1.63;;;16.50;99.90;;;;;;5062276;28;20458;-68
2024/03/15 11:07:22;;;;;;;3.97;2.03;;;17.40;99.90;;;;;;5067583;28;20452;-68
2024/03/15 11:09:48;;;;;;;3.87;2.33;;;17.90;99.90;;;;;;5056244;28;20507;-68
2024/03/15 11:12:17;;;;;;;2.63;1.67;;;17.90;99.90;;;;;;5054000;28;20515;-68
2024/03/15 11:14:44;;;;;;;2.60;2.20;;;18.10;99.90;;;;;;5053337;28;20921;-66
2024/03/15 11:17:16;;;;;;;2.60;2.03;;;18.90;99.90;;;;;;5063164;28;20475;-66
2024/03/15 11:19:47;;;;;;;2.30;2.10;;;20.10;99.90;;;;;;5078574;28;22282;-69
2024/03/15 11:22:19;;;;;;;5.83;2.00;;;20.70;99.90;;;;;;5062811;28;20551;-69
2024/03/15 11:24:48;;;;;;;3.73;2.50;;;20.50;99.90;;;;;;5062409;28;20468;-68
2024/03/15 11:27:15;;;;;;;4.23;1.80;;;20.40;99.90;;;;;;5061640;28;20459;-69
2024/03/15 11:29:43;;;;;;;8.07;2.00;;;19.50;99.90;;;;;;5052806;28;20503;-68
2024/03/15 11:32:14;;;;;;;3.43;1.87;;;19.20;99.90;;;;;;5073782;28;20498;-68
2024/03/15 11:34:41;;;;;;;4.17;1.50;;;18.90;99.90;;;;;;5076159;28;20861;-68
2024/03/15 11:37:09;;;;;;;2.50;1.30;;;18.90;99.90;;;;;;5054676;28;20456;-69
2024/03/15 11:39:36;;;;;;;2.30;1.60;;;19.00;99.90;;;;;;5048378;28;20491;-69
2024/03/15 11:42:03;;;;;;;3.73;1.77;;;19.30;99.90;;;;;;5052810;28;21112;-70
2024/03/15 11:44:30;;;;;;;2.73;2.00;;;19.00;99.90;;;;;;5052484;28;20951;-68
2024/03/15 11:46:57;;;;;;;2.90;1.33;;;18.80;99.90;;;;;;5074970;28;20450;-67
2024/03/15 11:49:32;;;;;;;2.10;1.90;;;18.20;99.90;;;;;;5063218;28;20503;-69
2024/03/15 11:51:59;;;;;;;2.10;1.90;;;18.00;99.90;;;;;;5063117;28;20464;-68
2024/03/15 11:54:26;;;;;;;2.10;1.60;;;18.10;99.90;;;;;;5053566;28;20477;-69
2024/03/15 11:56:58;;;;;;;8.33;2.20;;;18.10;99.90;;;;;;5069743;28;20489;-69
2024/03/15 11:59:27;;;;;;;3.70;1.60;;;18.00;99.90;;;;;;5060098;28;20529;-69
2024/03/15 12:01:54;;;;;;;2.23;1.47;;;18.00;99.90;;;;;;5062427;28;20466;-70
2024/03/15 12:04:22;;;;;;;4.33;1.80;;;17.90;99.90;;;;;;5061897;28;20460;-69
2024/03/15 12:06:49;;;;;;;3.97;1.73;;;17.60;99.90;;;;;;5051561;28;22313;-68
2024/03/15 12:09:16;;;;;;;4.63;2.10;;;17.60;99.90;;;;;;5049310;28;20572;-69
2024/03/15 12:11:43;;;;;;;6.60;1.60;;;17.50;99.90;;;;;;5047141;28;20458;-69
2024/03/15 12:14:14;;;;;;;2.33;1.70;;;17.60;99.90;;;;;;5054942;28;20476;-68
2024/03/15 12:16:44;;;;;;;3.23;1.77;;;17.70;99.90;;;;;;5052066;28;20457;-70
2024/03/15 12:19:14;;;;;;;2.40;1.83;;;18.50;99.90;;;;;;5042868;28;21127;-68
2024/03/15 12:21:41;;;;;;;3.27;1.80;;;19.00;99.90;;;;;;5068517;28;20457;-67
2024/03/15 12:24:08;;;;;;;2.97;1.90;;;19.40;99.90;;;;;;5054715;28;20460;-67
2024/03/15 12:26:35;;;;;;;4.13;1.93;;;19.30;99.90;;;;;;5068898;28;21073;-67
2024/03/15 12:29:02;;;;;;;2.03;1.30;;;19.40;99.90;;;;;;5070209;28;20465;-67
2024/03/15 12:31:30;;;;;;;1.37;1.00;;;20.40;99.90;;;;;;5055668;23;20490;-72
2024/03/15 12:33:57;;;;;;;3.37;1.37;;;20.30;99.90;;;;;;5038790;28;20546;-72
2024/03/15 12:36:24;;;;;;;4.93;1.20;;;19.60;99.90;;;;;;5036483;28;20491;-73
2024/03/15 12:38:54;;;;;;;1.60;1.10;;;19.20;99.90;;;;;;5035702;28;20458;-72
2024/03/15 12:41:21;;;;;;;1.70;1.20;;;18.60;99.90;;;;;;5036868;28;20489;-72
2024/03/15 12:43:48;;;;;;;2.57;1.87;;;18.30;99.90;;;;;;5034738;28;20465;-72
2024/03/15 12:46:15;;;;;;;3.37;1.40;;;18.10;99.90;;;;;;5029969;28;22890;-71
2024/03/15 12:48:42;;;;;;;1.57;1.37;;;17.90;99.90;;;;;;5033902;28;20450;-72
2024/03/15 12:51:09;;;;;;;1.70;1.40;;;18.40;99.90;;;;;;5037014;28;20950;-72
2024/03/15 12:53:36;;;;;;;1.50;1.30;;;19.10;99.90;;;;;;5052877;28;20820;-72